Toksook Bay, Alaska
Current Conditions -  °F | °C
As of 8:56 AM on Wednesday 26 Nov 2014 (Local Time) from PAOO Reporting Station
Broken Clouds Broken Clouds  
Wind Chill: 21°   Ceiling: 2600
Heat Index: 33°   Visibility: 10mi
Dew Point: 31°   Wind: 21mph
Humidity: 93%   Direction: 110°ESE
Pressure: 30.13"   Gusts: NA
Location:  60.53°N, 165.1°W
Report Text: PAOO 261756Z AUTO 11018KT 10SM BKN026 01/M01 A3013 RMK AO2 TSNO 56009 T00051005 10005 20000 SLP203 $
Loading
Personal Weather Stations






























Interactive Weather Map New forecast layout! Learn more

10-Day Weather Forecast

Advertisements
Track Severe Weather on mobile